sensor_id;sensor_type;location;lat;lon;timestamp;pressure;altitude;pressure_sealevel;temperature;humidity
58239;BME280;44037;55.638;37.356;2023-02-28T00:00:12;99627.94;;;-7.18;89.99
58239;BME280;44037;55.638;37.356;2023-02-28T00:02:41;99630.56;;;-7.17;90.17
58239;BME280;44037;55.638;37.356;2023-02-28T00:05:11;99625.41;;;-7.18;89.94
58239;BME280;44037;55.638;37.356;2023-02-28T00:07:38;99619.88;;;-7.25;89.43
58239;BME280;44037;55.638;37.356;2023-02-28T00:10:07;99612.81;;;-7.29;89.72
58239;BME280;44037;55.638;37.356;2023-02-28T00:12:37;99616.38;;;-7.37;89.45
58239;BME280;44037;55.638;37.356;2023-02-28T00:15:06;99611.63;;;-7.44;89.80
58239;BME280;44037;55.638;37.356;2023-02-28T00:17:34;99608.63;;;-7.50;89.35
58239;BME280;44037;55.638;37.356;2023-02-28T00:20:01;99603.09;;;-7.57;89.47
58239;BME280;44037;55.638;37.356;2023-02-28T00:22:38;99601.84;;;-7.62;89.46
58239;BME280;44037;55.638;37.356;2023-02-28T00:25:06;99595.53;;;-7.67;89.57
58239;BME280;44037;55.638;37.356;2023-02-28T00:27:34;99599.19;;;-7.74;89.44
58239;BME280;44037;55.638;37.356;2023-02-28T00:30:03;99595.81;;;-7.74;89.34
58239;BME280;44037;55.638;37.356;2023-02-28T00:32:31;99582.88;;;-7.79;89.38
58239;BME280;44037;55.638;37.356;2023-02-28T00:35:00;99585.63;;;-7.86;89.06
58239;BME280;44037;55.638;37.356;2023-02-28T00:37:30;99589.53;;;-7.90;88.99
58239;BME280;44037;55.638;37.356;2023-02-28T00:39:57;99579.47;;;-7.90;89.47
58239;BME280;44037;55.638;37.356;2023-02-28T00:42:25;99580.59;;;-7.86;90.15
58239;BME280;44037;55.638;37.356;2023-02-28T00:44:52;99594.06;;;-7.85;89.80
58239;BME280;44037;55.638;37.356;2023-02-28T00:47:21;99583.50;;;-7.81;90.05
58239;BME280;44037;55.638;37.356;2023-02-28T00:49:48;99584.00;;;-7.75;90.21
58239;BME280;44037;55.638;37.356;2023-02-28T00:52:15;99581.72;;;-7.72;90.03
58239;BME280;44037;55.638;37.356;2023-02-28T00:54:42;99573.66;;;-7.68;90.15
58239;BME280;44037;55.638;37.356;2023-02-28T00:57:09;99568.88;;;-7.65;90.07
58239;BME280;44037;55.638;37.356;2023-02-28T00:59:36;99558.31;;;-7.61;90.26
58239;BME280;44037;55.638;37.356;2023-02-28T01:02:03;99566.09;;;-7.58;90.33
58239;BME280;44037;55.638;37.356;2023-02-28T01:04:32;99566.09;;;-7.58;90.18
58239;BME280;44037;55.638;37.356;2023-02-28T01:06:59;99565.09;;;-7.60;89.52
58239;BME280;44037;55.638;37.356;2023-02-28T01:09:26;99557.53;;;-7.60;89.88
58239;BME280;44037;55.638;37.356;2023-02-28T01:11:53;99558.81;;;-7.65;89.86
58239;BME280;44037;55.638;37.356;2023-02-28T01:14:20;99556.81;;;-7.69;89.96
58239;BME280;44037;55.638;37.356;2023-02-28T01:16:47;99550.03;;;-7.70;89.83
58239;BME280;44037;55.638;37.356;2023-02-28T01:19:14;99547.50;;;-7.70;90.10
58239;BME280;44037;55.638;37.356;2023-02-28T01:21:44;99545.34;;;-7.65;90.03
58239;BME280;44037;55.638;37.356;2023-02-28T01:24:11;99535.41;;;-7.64;90.11
58239;BME280;44037;55.638;37.356;2023-02-28T01:26:38;99537.16;;;-7.63;90.02
58239;BME280;44037;55.638;37.356;2023-02-28T01:29:05;99517.03;;;-7.63;89.96
58239;BME280;44037;55.638;37.356;2023-02-28T01:31:32;99519.53;;;-7.63;90.09
58239;BME280;44037;55.638;37.356;2023-02-28T01:33:59;99522.06;;;-7.63;90.06
58239;BME280;44037;55.638;37.356;2023-02-28T01:36:26;99518.78;;;-7.62;90.29
58239;BME280;44037;55.638;37.356;2023-02-28T01:38:55;99510.09;;;-7.55;90.64
58239;BME280;44037;55.638;37.356;2023-02-28T01:41:23;99500.03;;;-7.55;90.12
58239;BME280;44037;55.638;37.356;2023-02-28T01:43:59;99496.75;;;-7.54;90.21
58239;BME280;44037;55.638;37.356;2023-02-28T01:46:28;99493.47;;;-7.53;90.24
58239;BME280;44037;55.638;37.356;2023-02-28T01:49:00;99497.75;;;-7.52;90.22
58239;BME280;44037;55.638;37.356;2023-02-28T01:51:33;99481.66;;;-7.54;89.87
58239;BME280;44037;55.638;37.356;2023-02-28T01:54:06;99483.41;;;-7.53;90.06
58239;BME280;44037;55.638;37.356;2023-02-28T01:56:42;99473.19;;;-7.54;90.16
58239;BME280;44037;55.638;37.356;2023-02-28T01:59:12;99461.25;;;-7.57;89.92
58239;BME280;44037;55.638;37.356;2023-02-28T02:01:41;99463.88;;;-7.56;89.93
58239;BME280;44037;55.638;37.356;2023-02-28T02:04:09;99464.78;;;-7.55;89.89
58239;BME280;44037;55.638;37.356;2023-02-28T02:06:39;99458.34;;;-7.51;89.84
58239;BME280;44037;55.638;37.356;2023-02-28T02:09:08;99461.09;;;-7.48;90.21
58239;BME280;44037;55.638;37.356;2023-02-28T02:11:36;99452.16;;;-7.45;90.10
58239;BME280;44037;55.638;37.356;2023-02-28T02:17:22;99445.59;;;-7.43;90.04
58239;BME280;44037;55.638;37.356;2023-02-28T02:23:08;99423.19;;;-7.39;90.01
58239;BME280;44037;55.638;37.356;2023-02-28T02:25:43;99421.66;;;-7.37;90.01
58239;BME280;44037;55.638;37.356;2023-02-28T02:31:29;99422.63;;;-7.35;89.78
58239;BME280;44037;55.638;37.356;2023-02-28T02:34:31;99425.03;;;-7.37;89.78
58239;BME280;44037;55.638;37.356;2023-02-28T02:37:11;99428.84;;;-7.42;89.33
58239;BME280;44037;55.638;37.356;2023-02-28T02:39:44;99417.81;;;-7.44;89.70
58239;BME280;44037;55.638;37.356;2023-02-28T02:42:16;99428.63;;;-7.45;89.60
58239;BME280;44037;55.638;37.356;2023-02-28T02:44:50;99422.69;;;-7.46;89.40
58239;BME280;44037;55.638;37.356;2023-02-28T02:47:20;99424.56;;;-7.43;89.75
58239;BME280;44037;55.638;37.356;2023-02-28T02:49:54;99409.69;;;-7.40;89.71
58239;BME280;44037;55.638;37.356;2023-02-28T02:52:31;99398.13;;;-7.38;89.99
58239;BME280;44037;55.638;37.356;2023-02-28T02:55:02;99406.91;;;-7.33;89.88
58239;BME280;44037;55.638;37.356;2023-02-28T02:57:36;99411.38;;;-7.29;89.85
58239;BME280;44037;55.638;37.356;2023-02-28T03:00:06;99398.81;;;-7.29;89.56
58239;BME280;44037;55.638;37.356;2023-02-28T03:02:35;99393.78;;;-7.29;89.48
58239;BME280;44037;55.638;37.356;2023-02-28T03:05:11;99379.97;;;-7.34;89.32
58239;BME280;44037;55.638;37.356;2023-02-28T03:07:41;99376.34;;;-7.37;89.20
58239;BME280;44037;55.638;37.356;2023-02-28T03:13:37;99371.50;;;-7.46;89.15
58239;BME280;44037;55.638;37.356;2023-02-28T03:16:29;99362.94;;;-7.48;89.02
58239;BME280;44037;55.638;37.356;2023-02-28T03:19:07;99367.47;;;-7.44;89.09
58239;BME280;44037;55.638;37.356;2023-02-28T03:21:43;99364.16;;;-7.43;89.30
58239;BME280;44037;55.638;37.356;2023-02-28T03:24:19;99355.84;;;-7.42;89.10
58239;BME280;44037;55.638;37.356;2023-02-28T03:26:54;99356.97;;;-7.38;89.39
58239;BME280;44037;55.638;37.356;2023-02-28T03:29:26;99349.28;;;-7.40;89.20
58239;BME280;44037;55.638;37.356;2023-02-28T03:31:59;99353.44;;;-7.41;89.04
58239;BME280;44037;55.638;37.356;2023-02-28T03:34:32;99331.31;;;-7.45;89.03
58239;BME280;44037;55.638;37.356;2023-02-28T03:37:05;99334.34;;;-7.49;88.74
58239;BME280;44037;55.638;37.356;2023-02-28T03:39:37;99322.31;;;-7.53;88.80
58239;BME280;44037;55.638;37.356;2023-02-28T03:42:09;99317.91;;;-7.56;88.65
58239;BME280;44037;55.638;37.356;2023-02-28T03:44:41;99315.94;;;-7.60;89.08
58239;BME280;44037;55.638;37.356;2023-02-28T03:47:12;99311.53;;;-7.62;88.66
58239;BME280;44037;55.638;37.356;2023-02-28T03:49:43;99314.72;;;-7.65;88.48
58239;BME280;44037;55.638;37.356;2023-02-28T03:52:14;99308.47;;;-7.70;88.21
58239;BME280;44037;55.638;37.356;2023-02-28T03:54:47;99318.28;;;-7.73;88.52
58239;BME280;44037;55.638;37.356;2023-02-28T03:57:22;99301.44;;;-7.74;88.66
58239;BME280;44037;55.638;37.356;2023-02-28T03:59:56;99289.09;;;-7.71;88.72
58239;BME280;44037;55.638;37.356;2023-02-28T04:02:24;99282.81;;;-7.76;88.32
58239;BME280;44037;55.638;37.356;2023-02-28T04:04:51;99287.84;;;-7.76;88.55
58239;BME280;44037;55.638;37.356;2023-02-28T04:07:20;99283.81;;;-7.74;88.50
58239;BME280;44037;55.638;37.356;2023-02-28T04:09:48;99272.00;;;-7.75;88.36
58239;BME280;44037;55.638;37.356;2023-02-28T04:12:15;99264.47;;;-7.75;88.65
58239;BME280;44037;55.638;37.356;2023-02-28T04:14:42;99262.69;;;-7.76;88.47
58239;BME280;44037;55.638;37.356;2023-02-28T04:17:09;99246.84;;;-7.75;88.61
58239;BME280;44037;55.638;37.356;2023-02-28T04:19:36;99253.75;;;-7.73;88.58
58239;BME280;44037;55.638;37.356;2023-02-28T04:22:03;99263.19;;;-7.70;88.51
58239;BME280;44037;55.638;37.356;2023-02-28T04:24:31;99257.59;;;-7.66;88.32
58239;BME280;44037;55.638;37.356;2023-02-28T04:26:58;99256.84;;;-7.65;88.27
58239;BME280;44037;55.638;37.356;2023-02-28T04:29:26;99257.94;;;-7.61;88.52
58239;BME280;44037;55.638;37.356;2023-02-28T04:31:54;99262.34;;;-7.59;88.35
58239;BME280;44037;55.638;37.356;2023-02-28T04:34:23;99257.31;;;-7.59;88.32
58239;BME280;44037;55.638;37.356;2023-02-28T04:36:51;99249.84;;;-7.57;87.92
58239;BME280;44037;55.638;37.356;2023-02-28T04:39:20;99263.44;;;-7.55;88.01
58239;BME280;44037;55.638;37.356;2023-02-28T04:41:50;99250.09;;;-7.54;87.51
58239;BME280;44037;55.638;37.356;2023-02-28T04:44:17;99238.50;;;-7.52;87.53
58239;BME280;44037;55.638;37.356;2023-02-28T04:46:44;99236.09;;;-7.50;87.39
58239;BME280;44037;55.638;37.356;2023-02-28T04:49:12;99235.66;;;-7.45;87.66
58239;BME280;44037;55.638;37.356;2023-02-28T04:51:39;99244.22;;;-7.43;87.36
58239;BME280;44037;55.638;37.356;2023-02-28T04:54:07;99224.31;;;-7.39;87.31
58239;BME280;44037;55.638;37.356;2023-02-28T04:56:34;99215.44;;;-7.34;87.47
58239;BME280;44037;55.638;37.356;2023-02-28T04:59:02;99200.88;;;-7.27;87.13
58239;BME280;44037;55.638;37.356;2023-02-28T05:01:31;99200.59;;;-7.19;87.09
58239;BME280;44037;55.638;37.356;2023-02-28T05:04:00;99202.75;;;-7.12;86.92
58239;BME280;44037;55.638;37.356;2023-02-28T05:06:31;99199.59;;;-7.10;86.73
58239;BME280;44037;55.638;37.356;2023-02-28T05:08:59;99200.13;;;-7.02;86.57
58239;BME280;44037;55.638;37.356;2023-02-28T05:11:28;99196.53;;;-6.93;86.51
58239;BME280;44037;55.638;37.356;2023-02-28T05:14:01;99181.75;;;-6.89;85.86
58239;BME280;44037;55.638;37.356;2023-02-28T05:16:29;99175.50;;;-6.82;85.93
58239;BME280;44037;55.638;37.356;2023-02-28T05:18:57;99154.75;;;-6.78;85.74
58239;BME280;44037;55.638;37.356;2023-02-28T05:21:28;99155.31;;;-6.70;85.45
58239;BME280;44037;55.638;37.356;2023-02-28T05:23:57;99147.97;;;-6.67;85.30
58239;BME280;44037;55.638;37.356;2023-02-28T05:26:25;99151.25;;;-6.56;85.23
58239;BME280;44037;55.638;37.356;2023-02-28T05:28:53;99136.59;;;-6.49;84.79
58239;BME280;44037;55.638;37.356;2023-02-28T05:31:21;99138.91;;;-6.40;84.57
58239;BME280;44037;55.638;37.356;2023-02-28T05:33:49;99136.03;;;-6.33;84.65
58239;BME280;44037;55.638;37.356;2023-02-28T05:36:16;99124.59;;;-6.27;83.32
58239;BME280;44037;55.638;37.356;2023-02-28T05:38:46;99116.03;;;-6.29;82.11
58239;BME280;44037;55.638;37.356;2023-02-28T05:41:14;99117.72;;;-6.30;81.48
58239;BME280;44037;55.638;37.356;2023-02-28T05:43:41;99104.34;;;-6.29;81.86
58239;BME280;44037;55.638;37.356;2023-02-28T05:46:10;99107.72;;;-6.28;81.66
58239;BME280;44037;55.638;37.356;2023-02-28T05:48:40;99102.31;;;-6.21;81.79
58239;BME280;44037;55.638;37.356;2023-02-28T05:51:08;99094.38;;;-6.14;81.93
58239;BME280;44037;55.638;37.356;2023-02-28T05:53:36;99091.69;;;-6.04;81.71
58239;BME280;44037;55.638;37.356;2023-02-28T05:56:04;99082.38;;;-5.91;81.84
58239;BME280;44037;55.638;37.356;2023-02-28T05:58:31;99070.66;;;-5.77;81.52
58239;BME280;44037;55.638;37.356;2023-02-28T06:00:59;99060.38;;;-5.67;81.47
58239;BME280;44037;55.638;37.356;2023-02-28T06:03:27;99068.53;;;-5.58;81.33
58239;BME280;44037;55.638;37.356;2023-02-28T06:05:56;99066.63;;;-5.48;80.59
58239;BME280;44037;55.638;37.356;2023-02-28T06:08:23;99051.75;;;-5.44;80.32
58239;BME280;44037;55.638;37.356;2023-02-28T06:10:50;99054.06;;;-5.33;79.26
58239;BME280;44037;55.638;37.356;2023-02-28T06:13:17;99036.19;;;-5.23;80.12
58239;BME280;44037;55.638;37.356;2023-02-28T06:15:46;99044.59;;;-5.09;79.84
58239;BME280;44037;55.638;37.356;2023-02-28T06:18:13;99036.03;;;-4.98;79.24
58239;BME280;44037;55.638;37.356;2023-02-28T06:20:40;99025.22;;;-4.82;79.56
58239;BME280;44037;55.638;37.356;2023-02-28T06:23:09;99024.91;;;-4.73;78.29
58239;BME280;44037;55.638;37.356;2023-02-28T06:25:36;99021.75;;;-4.69;77.14
58239;BME280;44037;55.638;37.356;2023-02-28T06:28:04;99027.28;;;-4.61;76.90
58239;BME280;44037;55.638;37.356;2023-02-28T06:30:31;99022.16;;;-4.48;75.98
58239;BME280;44037;55.638;37.356;2023-02-28T06:32:59;99023.72;;;-4.50;70.93
58239;BME280;44037;55.638;37.356;2023-02-28T06:35:26;99022.53;;;-4.41;72.90
58239;BME280;44037;55.638;37.356;2023-02-28T06:37:53;98992.53;;;-4.20;73.60
58239;BME280;44037;55.638;37.356;2023-02-28T06:40:21;98973.69;;;-4.10;71.69
58239;BME280;44037;55.638;37.356;2023-02-28T06:42:48;98967.75;;;-3.96;70.92
58239;BME280;44037;55.638;37.356;2023-02-28T06:45:15;98958.75;;;-3.91;69.54
58239;BME280;44037;55.638;37.356;2023-02-28T06:47:43;98963.38;;;-3.83;69.08
58239;BME280;44037;55.638;37.356;2023-02-28T06:50:11;98975.75;;;-3.73;70.09
58239;BME280;44037;55.638;37.356;2023-02-28T06:52:39;98974.00;;;-3.59;69.63
58239;BME280;44037;55.638;37.356;2023-02-28T06:55:07;98954.38;;;-3.47;70.27
58239;BME280;44037;55.638;37.356;2023-02-28T06:57:36;98945.69;;;-3.35;69.79
58239;BME280;44037;55.638;37.356;2023-02-28T07:00:06;98935.31;;;-3.24;69.25
58239;BME280;44037;55.638;37.356;2023-02-28T07:02:34;98928.19;;;-3.14;67.35
58239;BME280;44037;55.638;37.356;2023-02-28T07:05:01;98927.91;;;-3.04;67.90
58239;BME280;44037;55.638;37.356;2023-02-28T07:07:29;98916.66;;;-2.92;66.46
58239;BME280;44037;55.638;37.356;2023-02-28T07:09:57;98928.03;;;-2.84;66.79
58239;BME280;44037;55.638;37.356;2023-02-28T07:12:24;98910.91;;;-2.72;66.76
58239;BME280;44037;55.638;37.356;2023-02-28T07:14:53;98899.16;;;-2.53;66.97
58239;BME280;44037;55.638;37.356;2023-02-28T07:17:21;98889.63;;;-2.41;65.81
58239;BME280;44037;55.638;37.356;2023-02-28T07:19:48;98886.41;;;-2.37;65.37
58239;BME280;44037;55.638;37.356;2023-02-28T07:22:15;98888.59;;;-2.26;65.58
58239;BME280;44037;55.638;37.356;2023-02-28T07:24:42;98885.50;;;-2.21;65.27
58239;BME280;44037;55.638;37.356;2023-02-28T07:27:09;98876.06;;;-2.05;66.34
58239;BME280;44037;55.638;37.356;2023-02-28T07:29:36;98871.66;;;-1.91;66.68
58239;BME280;44037;55.638;37.356;2023-02-28T07:32:05;98871.72;;;-1.70;65.12
58239;BME280;44037;55.638;37.356;2023-02-28T07:34:32;98862.16;;;-1.58;65.67
58239;BME280;44037;55.638;37.356;2023-02-28T07:36:59;98851.94;;;-1.40;66.46
58239;BME280;44037;55.638;37.356;2023-02-28T07:39:29;98861.97;;;-1.23;64.78
58239;BME280;44037;55.638;37.356;2023-02-28T07:41:56;98867.31;;;-1.17;64.74
58239;BME280;44037;55.638;37.356;2023-02-28T07:44:23;98853.13;;;-1.12;64.43
58239;BME280;44037;55.638;37.356;2023-02-28T07:46:50;98863.69;;;-1.22;62.91
58239;BME280;44037;55.638;37.356;2023-02-28T07:49:19;98851.78;;;-1.23;62.57
58239;BME280;44037;55.638;37.356;2023-02-28T07:51:47;98846.19;;;-1.16;63.38
58239;BME280;44037;55.638;37.356;2023-02-28T07:54:14;98845.03;;;-1.03;64.13
58239;BME280;44037;55.638;37.356;2023-02-28T07:56:41;98836.78;;;-0.97;63.64
58239;BME280;44037;55.638;37.356;2023-02-28T07:59:08;98831.97;;;-0.91;64.44
58239;BME280;44037;55.638;37.356;2023-02-28T08:01:35;98827.41;;;-0.79;63.46
58239;BME280;44037;55.638;37.356;2023-02-28T08:04:03;98823.91;;;-0.81;62.49
58239;BME280;44037;55.638;37.356;2023-02-28T08:06:32;98811.13;;;-0.82;63.05
58239;BME280;44037;55.638;37.356;2023-02-28T08:08:59;98801.97;;;-0.79;63.03
58239;BME280;44037;55.638;37.356;2023-02-28T08:11:26;98792.75;;;-0.75;64.33
58239;BME280;44037;55.638;37.356;2023-02-28T08:13:54;98789.41;;;-0.53;64.11
58239;BME280;44037;55.638;37.356;2023-02-28T08:16:21;98780.75;;;-0.35;62.80
58239;BME280;44037;55.638;37.356;2023-02-28T08:18:49;98788.75;;;-0.26;63.62
58239;BME280;44037;55.638;37.356;2023-02-28T08:21:16;98778.47;;;-0.06;63.41
58239;BME280;44037;55.638;37.356;2023-02-28T08:23:46;98784.19;;;0.11;62.62
58239;BME280;44037;55.638;37.356;2023-02-28T08:26:13;98780.31;;;0.21;61.55
58239;BME280;44037;55.638;37.356;2023-02-28T08:28:41;98773.91;;;0.32;61.18
58239;BME280;44037;55.638;37.356;2023-02-28T08:31:09;98762.53;;;0.47;60.67
58239;BME280;44037;55.638;37.356;2023-02-28T08:33:36;98769.16;;;0.66;61.19
58239;BME280;44037;55.638;37.356;2023-02-28T08:36:05;98744.72;;;0.72;62.07
58239;BME280;44037;55.638;37.356;2023-02-28T08:38:32;98741.00;;;0.88;62.00
58239;BME280;44037;55.638;37.356;2023-02-28T08:41:03;98736.88;;;0.92;62.04
58239;BME280;44037;55.638;37.356;2023-02-28T08:43:31;98725.44;;;1.06;61.88
58239;BME280;44037;55.638;37.356;2023-02-28T08:45:58;98722.47;;;1.20;61.25
58239;BME280;44037;55.638;37.356;2023-02-28T08:48:26;98710.50;;;1.17;61.75
58239;BME280;44037;55.638;37.356;2023-02-28T08:50:57;98755.94;;;1.03;61.19
58239;BME280;44037;55.638;37.356;2023-02-28T08:53:25;98774.53;;;0.73;60.17
58239;BME280;44037;55.638;37.356;2023-02-28T08:55:56;98779.81;;;0.31;58.89
58239;BME280;44037;55.638;37.356;2023-02-28T08:58:25;98785.63;;;-0.19;59.45
58239;BME280;44037;55.638;37.356;2023-02-28T09:00:53;98773.56;;;-0.45;60.55
58239;BME280;44037;55.638;37.356;2023-02-28T09:03:21;98783.44;;;-0.74;61.87
58239;BME280;44037;55.638;37.356;2023-02-28T09:05:53;98774.00;;;-0.98;62.63
58239;BME280;44037;55.638;37.356;2023-02-28T09:08:20;98778.72;;;-1.08;63.57
58239;BME280;44037;55.638;37.356;2023-02-28T09:10:47;98763.34;;;-1.11;64.64
58239;BME280;44037;55.638;37.356;2023-02-28T09:13:14;98755.47;;;-1.17;64.98
58239;BME280;44037;55.638;37.356;2023-02-28T09:15:42;98753.72;;;-1.37;65.25
58239;BME280;44037;55.638;37.356;2023-02-28T09:18:09;98746.00;;;-1.60;65.42
58239;BME280;44037;55.638;37.356;2023-02-28T09:20:37;98741.72;;;-1.61;66.20
58239;BME280;44037;55.638;37.356;2023-02-28T09:23:05;98732.59;;;-1.58;67.04
58239;BME280;44037;55.638;37.356;2023-02-28T09:25:32;98737.25;;;-1.47;67.24
58239;BME280;44037;55.638;37.356;2023-02-28T09:27:59;98714.94;;;-1.33;67.20
58239;BME280;44037;55.638;37.356;2023-02-28T09:30:26;98724.69;;;-1.23;67.43
58239;BME280;44037;55.638;37.356;2023-02-28T09:32:55;98719.16;;;-1.13;67.67
58239;BME280;44037;55.638;37.356;2023-02-28T09:35:24;98704.41;;;-1.00;68.10
58239;BME280;44037;55.638;37.356;2023-02-28T09:37:52;98710.75;;;-0.90;68.25
58239;BME280;44037;55.638;37.356;2023-02-28T09:40:22;98733.91;;;-0.84;68.19
58239;BME280;44037;55.638;37.356;2023-02-28T09:42:52;98728.63;;;-0.89;67.32
58239;BME280;44037;55.638;37.356;2023-02-28T09:45:23;98730.28;;;-0.89;67.83
58239;BME280;44037;55.638;37.356;2023-02-28T09:47:56;98736.25;;;-0.89;67.67
58239;BME280;44037;55.638;37.356;2023-02-28T09:50:30;98726.63;;;-0.96;67.26
58239;BME280;44037;55.638;37.356;2023-02-28T09:53:02;98708.06;;;-0.94;67.30
58239;BME280;44037;55.638;37.356;2023-02-28T09:55:33;98713.38;;;-0.89;67.32
58239;BME280;44037;55.638;37.356;2023-02-28T09:58:05;98693.25;;;-0.83;67.62
58239;BME280;44037;55.638;37.356;2023-02-28T10:00:34;98694.53;;;-0.71;68.40
58239;BME280;44037;55.638;37.356;2023-02-28T10:03:24;98700.91;;;-0.60;68.51
58239;BME280;44037;55.638;37.356;2023-02-28T10:05:55;98688.50;;;-0.73;66.47
58239;BME280;44037;55.638;37.356;2023-02-28T10:08:29;98683.38;;;-0.75;67.38
58239;BME280;44037;55.638;37.356;2023-02-28T10:10:59;98681.75;;;-0.73;67.46
58239;BME280;44037;55.638;37.356;2023-02-28T10:13:32;98672.22;;;-0.79;67.02
58239;BME280;44037;55.638;37.356;2023-02-28T10:16:03;98676.75;;;-0.93;67.24
58239;BME280;44037;55.638;37.356;2023-02-28T10:18:40;98670.75;;;-1.16;67.18
58239;BME280;44037;55.638;37.356;2023-02-28T10:21:17;98662.19;;;-1.18;67.95
58239;BME280;44037;55.638;37.356;2023-02-28T10:23:45;98663.38;;;-1.10;68.28
58239;BME280;44037;55.638;37.356;2023-02-28T10:26:15;98654.81;;;-1.12;68.02
58239;BME280;44037;55.638;37.356;2023-02-28T10:28:43;98637.75;;;-1.14;68.62
58239;BME280;44037;55.638;37.356;2023-02-28T10:31:11;98640.19;;;-1.17;68.69
58239;BME280;44037;55.638;37.356;2023-02-28T10:33:42;98637.63;;;-1.17;68.67
58239;BME280;44037;55.638;37.356;2023-02-28T10:36:13;98627.41;;;-1.19;69.44
58239;BME280;44037;55.638;37.356;2023-02-28T10:38:42;98632.00;;;-1.31;69.06
58239;BME280;44037;55.638;37.356;2023-02-28T10:41:11;98630.44;;;-1.49;69.73
58239;BME280;44037;55.638;37.356;2023-02-28T10:43:40;98632.00;;;-1.52;69.76
58239;BME280;44037;55.638;37.356;2023-02-28T10:46:14;98626.06;;;-1.53;70.66
58239;BME280;44037;55.638;37.356;2023-02-28T10:49:01;98630.25;;;-1.53;70.71
58239;BME280;44037;55.638;37.356;2023-02-28T10:51:36;98629.16;;;-1.39;70.63
58239;BME280;44037;55.638;37.356;2023-02-28T10:54:03;98625.69;;;-1.41;71.11
58239;BME280;44037;55.638;37.356;2023-02-28T10:56:32;98625.81;;;-1.38;71.09
58239;BME280;44037;55.638;37.356;2023-02-28T10:59:00;98617.44;;;-1.35;71.36
58239;BME280;44037;55.638;37.356;2023-02-28T11:01:37;98620.09;;;-1.32;71.15
58239;BME280;44037;55.638;37.356;2023-02-28T11:04:17;98603.69;;;-1.41;71.18
58239;BME280;44037;55.638;37.356;2023-02-28T11:06:45;98606.59;;;-1.31;71.90
58239;BME280;44037;55.638;37.356;2023-02-28T11:09:21;98609.13;;;-1.31;71.98
58239;BME280;44037;55.638;37.356;2023-02-28T11:11:50;98588.69;;;-1.34;71.63
58239;BME280;44037;55.638;37.356;2023-02-28T11:14:20;98597.09;;;-1.35;72.27
58239;BME280;44037;55.638;37.356;2023-02-28T11:16:49;98591.00;;;-1.41;72.20
58239;BME280;44037;55.638;37.356;2023-02-28T11:19:20;98586.41;;;-1.49;73.00
58239;BME280;44037;55.638;37.356;2023-02-28T11:21:53;98585.28;;;-1.56;72.49
58239;BME280;44037;55.638;37.356;2023-02-28T11:24:24;98581.81;;;-1.58;73.44
58239;BME280;44037;55.638;37.356;2023-02-28T11:26:53;98568.00;;;-1.65;73.82
58239;BME280;44037;55.638;37.356;2023-02-28T11:29:22;98567.94;;;-1.66;74.50
58239;BME280;44037;55.638;37.356;2023-02-28T11:32:13;98568.75;;;-1.67;74.16
58239;BME280;44037;55.638;37.356;2023-02-28T11:34:44;98575.66;;;-1.63;74.43
58239;BME280;44037;55.638;37.356;2023-02-28T11:37:15;98571.28;;;-1.67;75.06
58239;BME280;44037;55.638;37.356;2023-02-28T11:39:43;98564.47;;;-1.68;75.40
58239;BME280;44037;55.638;37.356;2023-02-28T11:42:32;98564.34;;;-1.72;75.34
58239;BME280;44037;55.638;37.356;2023-02-28T11:45:19;98567.34;;;-1.80;75.88
58239;BME280;44037;55.638;37.356;2023-02-28T11:47:57;98572.50;;;-1.79;76.09
58239;BME280;44037;55.638;37.356;2023-02-28T11:50:42;98555.78;;;-1.74;76.57
58239;BME280;44037;55.638;37.356;2023-02-28T11:53:19;98558.44;;;-1.71;76.43
58239;BME280;44037;55.638;37.356;2023-02-28T11:55:52;98553.56;;;-1.66;76.79
58239;BME280;44037;55.638;37.356;2023-02-28T11:58:29;98547.72;;;-1.63;76.94
58239;BME280;44037;55.638;37.356;2023-02-28T12:01:19;98546.38;;;-1.55;77.02
58239;BME280;44037;55.638;37.356;2023-02-28T12:03:58;98540.72;;;-1.48;77.59
58239;BME280;44037;55.638;37.356;2023-02-28T12:06:32;98541.81;;;-1.41;77.55
58239;BME280;44037;55.638;37.356;2023-02-28T12:09:04;98535.31;;;-1.34;77.67
58239;BME280;44037;55.638;37.356;2023-02-28T12:11:48;98536.19;;;-1.34;77.55
58239;BME280;44037;55.638;37.356;2023-02-28T12:17:37;98528.72;;;-1.29;77.27
58239;BME280;44037;55.638;37.356;2023-02-28T12:20:17;98526.88;;;-1.33;77.92
58239;BME280;44037;55.638;37.356;2023-02-28T12:22:50;98520.94;;;-1.34;78.08
58239;BME280;44037;55.638;37.356;2023-02-28T12:25:43;98519.72;;;-1.44;78.37
58239;BME280;44037;55.638;37.356;2023-02-28T12:28:16;98518.47;;;-1.53;77.98
58239;BME280;44037;55.638;37.356;2023-02-28T12:30:51;98519.22;;;-1.56;79.97
58239;BME280;44037;55.638;37.356;2023-02-28T12:33:22;98511.16;;;-1.67;80.09
58239;BME280;44037;55.638;37.356;2023-02-28T12:35:54;98520.16;;;-1.75;80.22
58239;BME280;44037;55.638;37.356;2023-02-28T12:38:26;98514.78;;;-1.83;81.47
58239;BME280;44037;55.638;37.356;2023-02-28T12:40:57;98509.81;;;-1.80;80.52
58239;BME280;44037;55.638;37.356;2023-02-28T12:43:30;98505.78;;;-1.75;81.47
58239;BME280;44037;55.638;37.356;2023-02-28T12:46:02;98500.97;;;-1.68;82.47
58239;BME280;44037;55.638;37.356;2023-02-28T12:48:37;98485.59;;;-1.72;81.81
58239;BME280;44037;55.638;37.356;2023-02-28T12:51:06;98489.75;;;-1.74;82.81
58239;BME280;44037;55.638;37.356;2023-02-28T12:53:46;98486.16;;;-1.79;83.33
58239;BME280;44037;55.638;37.356;2023-02-28T12:56:20;98474.94;;;-1.84;83.18
58239;BME280;44037;55.638;37.356;2023-02-28T12:58:52;98474.16;;;-1.83;83.40
58239;BME280;44037;55.638;37.356;2023-02-28T13:01:42;98478.41;;;-1.82;83.79
58239;BME280;44037;55.638;37.356;2023-02-28T13:07:45;98466.41;;;-1.86;84.57
58239;BME280;44037;55.638;37.356;2023-02-28T13:10:17;98441.09;;;-1.84;85.04
58239;BME280;44037;55.638;37.356;2023-02-28T13:12:49;98437.75;;;-1.83;84.80
58239;BME280;44037;55.638;37.356;2023-02-28T13:15:19;98448.78;;;-1.81;86.13
58239;BME280;44037;55.638;37.356;2023-02-28T13:17:51;98443.81;;;-1.80;84.95
58239;BME280;44037;55.638;37.356;2023-02-28T13:20:20;98450.66;;;-1.77;85.76
58239;BME280;44037;55.638;37.356;2023-02-28T13:22:49;98443.94;;;-1.77;86.23
58239;BME280;44037;55.638;37.356;2023-02-28T13:34:41;98418.75;;;-1.71;86.33